sensor_id;sensor_type;location;lat;lon;timestamp;temperature;humidity
43995;DHT22;51687;52.160;5.298;2023-05-29T00:00:53;20.70;46.80
43995;DHT22;51687;52.160;5.298;2023-05-29T00:03:20;20.70;46.70
43995;DHT22;51687;52.160;5.298;2023-05-29T00:05:47;20.60;46.50
43995;DHT22;51687;52.160;5.298;2023-05-29T00:08:13;20.70;46.80
43995;DHT22;51687;52.160;5.298;2023-05-29T00:10:40;20.70;46.40
43995;DHT22;51687;52.160;5.298;2023-05-29T00:13:07;20.70;47.10
43995;DHT22;51687;52.160;5.298;2023-05-29T00:15:34;20.60;46.40
43995;DHT22;51687;52.160;5.298;2023-05-29T00:18:02;20.70;46.50
43995;DHT22;51687;52.160;5.298;2023-05-29T00:20:29;20.70;46.50
43995;DHT22;51687;52.160;5.298;2023-05-29T00:22:55;20.70;46.40
43995;DHT22;51687;52.160;5.298;2023-05-29T00:25:23;20.70;46.20
43995;DHT22;51687;52.160;5.298;2023-05-29T00:27:50;20.70;46.40
43995;DHT22;51687;52.160;5.298;2023-05-29T00:30:18;20.70;46.60
43995;DHT22;51687;52.160;5.298;2023-05-29T00:32:44;20.70;46.70
43995;DHT22;51687;52.160;5.298;2023-05-29T00:35:12;20.70;45.90
43995;DHT22;51687;52.160;5.298;2023-05-29T00:37:39;20.70;46.00
43995;DHT22;51687;52.160;5.298;2023-05-29T00:40:07;20.80;45.60
43995;DHT22;51687;52.160;5.298;2023-05-29T00:42:34;20.70;45.20
43995;DHT22;51687;52.160;5.298;2023-05-29T00:45:00;20.70;45.30
43995;DHT22;51687;52.160;5.298;2023-05-29T00:47:27;20.70;45.90
43995;DHT22;51687;52.160;5.298;2023-05-29T00:49:56;20.70;45.30
43995;DHT22;51687;52.160;5.298;2023-05-29T00:52:24;20.70;45.10
43995;DHT22;51687;52.160;5.298;2023-05-29T00:54:52;20.70;45.00
43995;DHT22;51687;52.160;5.298;2023-05-29T00:57:19;20.70;45.00
43995;DHT22;51687;52.160;5.298;2023-05-29T00:59:47;20.60;45.10
43995;DHT22;51687;52.160;5.298;2023-05-29T01:02:15;20.70;45.40
43995;DHT22;51687;52.160;5.298;2023-05-29T01:04:44;20.60;44.70
43995;DHT22;51687;52.160;5.298;2023-05-29T01:07:11;20.60;44.40
43995;DHT22;51687;52.160;5.298;2023-05-29T01:09:39;20.60;44.50
43995;DHT22;51687;52.160;5.298;2023-05-29T01:15:13;20.50;44.90
43995;DHT22;51687;52.160;5.298;2023-05-29T01:20:27;20.50;45.00
43995;DHT22;51687;52.160;5.298;2023-05-29T01:28:42;20.50;45.20
43995;DHT22;51687;52.160;5.298;2023-05-29T01:31:10;20.50;44.70
43995;DHT22;51687;52.160;5.298;2023-05-29T01:33:39;20.50;44.50
43995;DHT22;51687;52.160;5.298;2023-05-29T01:36:10;20.40;44.70
43995;DHT22;51687;52.160;5.298;2023-05-29T01:38:37;20.40;44.50
43995;DHT22;51687;52.160;5.298;2023-05-29T01:41:04;20.40;44.50
43995;DHT22;51687;52.160;5.298;2023-05-29T01:43:31;20.40;44.80
43995;DHT22;51687;52.160;5.298;2023-05-29T01:45:59;20.40;44.60
43995;DHT22;51687;52.160;5.298;2023-05-29T01:48:27;20.40;44.50
43995;DHT22;51687;52.160;5.298;2023-05-29T01:50:54;20.40;44.60
43995;DHT22;51687;52.160;5.298;2023-05-29T01:53:22;20.40;44.60
43995;DHT22;51687;52.160;5.298;2023-05-29T01:55:50;20.40;44.70
43995;DHT22;51687;52.160;5.298;2023-05-29T01:58:18;20.40;44.60
43995;DHT22;51687;52.160;5.298;2023-05-29T02:00:47;20.40;44.50
43995;DHT22;51687;52.160;5.298;2023-05-29T02:03:14;20.40;44.30
43995;DHT22;51687;52.160;5.298;2023-05-29T02:05:41;20.30;44.30
43995;DHT22;51687;52.160;5.298;2023-05-29T02:08:08;20.30;44.30
43995;DHT22;51687;52.160;5.298;2023-05-29T02:10:34;20.40;45.20
43995;DHT22;51687;52.160;5.298;2023-05-29T02:13:01;20.40;44.50
43995;DHT22;51687;52.160;5.298;2023-05-29T02:15:28;20.40;44.40
43995;DHT22;51687;52.160;5.298;2023-05-29T02:17:55;20.40;44.40
43995;DHT22;51687;52.160;5.298;2023-05-29T02:20:22;20.40;44.60
43995;DHT22;51687;52.160;5.298;2023-05-29T02:22:49;20.40;44.40
43995;DHT22;51687;52.160;5.298;2023-05-29T02:25:15;20.40;44.70
43995;DHT22;51687;52.160;5.298;2023-05-29T02:27:42;20.40;44.60
43995;DHT22;51687;52.160;5.298;2023-05-29T02:30:09;20.40;44.00
43995;DHT22;51687;52.160;5.298;2023-05-29T02:32:37;20.40;44.10
43995;DHT22;51687;52.160;5.298;2023-05-29T02:35:04;20.40;44.90
43995;DHT22;51687;52.160;5.298;2023-05-29T02:37:31;20.30;44.20
43995;DHT22;51687;52.160;5.298;2023-05-29T02:39:58;20.30;44.50
43995;DHT22;51687;52.160;5.298;2023-05-29T02:42:24;20.30;44.40
43995;DHT22;51687;52.160;5.298;2023-05-29T02:44:51;20.30;45.40
43995;DHT22;51687;52.160;5.298;2023-05-29T02:47:18;20.30;44.80
43995;DHT22;51687;52.160;5.298;2023-05-29T02:49:45;20.30;44.50
43995;DHT22;51687;52.160;5.298;2023-05-29T02:52:12;20.30;44.70
43995;DHT22;51687;52.160;5.298;2023-05-29T02:54:38;20.30;44.30
43995;DHT22;51687;52.160;5.298;2023-05-29T02:57:05;20.30;44.20
43995;DHT22;51687;52.160;5.298;2023-05-29T02:59:32;20.30;44.20
43995;DHT22;51687;52.160;5.298;2023-05-29T03:01:59;20.20;44.60
43995;DHT22;51687;52.160;5.298;2023-05-29T03:04:27;20.30;44.50
43995;DHT22;51687;52.160;5.298;2023-05-29T03:06:53;20.20;44.80
43995;DHT22;51687;52.160;5.298;2023-05-29T03:09:22;20.20;44.60
43995;DHT22;51687;52.160;5.298;2023-05-29T03:11:49;20.20;44.20
43995;DHT22;51687;52.160;5.298;2023-05-29T03:14:17;20.20;43.50
43995;DHT22;51687;52.160;5.298;2023-05-29T03:16:45;20.20;44.30
43995;DHT22;51687;52.160;5.298;2023-05-29T03:19:12;20.20;44.30
43995;DHT22;51687;52.160;5.298;2023-05-29T03:21:39;20.20;44.10
43995;DHT22;51687;52.160;5.298;2023-05-29T03:24:06;20.20;44.00
43995;DHT22;51687;52.160;5.298;2023-05-29T03:26:33;20.10;43.90
43995;DHT22;51687;52.160;5.298;2023-05-29T03:29:00;20.10;44.20
43995;DHT22;51687;52.160;5.298;2023-05-29T03:31:26;20.10;44.20
43995;DHT22;51687;52.160;5.298;2023-05-29T03:33:53;20.10;45.00
43995;DHT22;51687;52.160;5.298;2023-05-29T03:36:20;20.10;44.80
43995;DHT22;51687;52.160;5.298;2023-05-29T03:38:47;20.10;44.60
43995;DHT22;51687;52.160;5.298;2023-05-29T03:41:14;20.10;44.50
43995;DHT22;51687;52.160;5.298;2023-05-29T03:43:40;20.10;44.10
43995;DHT22;51687;52.160;5.298;2023-05-29T03:46:08;20.10;44.10
43995;DHT22;51687;52.160;5.298;2023-05-29T03:48:34;20.10;44.30
43995;DHT22;51687;52.160;5.298;2023-05-29T03:51:01;20.10;43.90
43995;DHT22;51687;52.160;5.298;2023-05-29T03:53:28;20.10;44.40
43995;DHT22;51687;52.160;5.298;2023-05-29T03:55:55;20.10;44.50
43995;DHT22;51687;52.160;5.298;2023-05-29T03:58:22;20.10;44.40
43995;DHT22;51687;52.160;5.298;2023-05-29T04:13:10;20.10;43.80
43995;DHT22;51687;52.160;5.298;2023-05-29T04:15:37;20.10;44.10
43995;DHT22;51687;52.160;5.298;2023-05-29T04:18:04;20.10;44.10
43995;DHT22;51687;52.160;5.298;2023-05-29T04:20:31;20.10;44.40
43995;DHT22;51687;52.160;5.298;2023-05-29T04:22:58;20.10;43.90
43995;DHT22;51687;52.160;5.298;2023-05-29T04:25:25;20.10;44.20
43995;DHT22;51687;52.160;5.298;2023-05-29T04:27:51;20.10;43.90
43995;DHT22;51687;52.160;5.298;2023-05-29T04:30:18;20.10;44.00
43995;DHT22;51687;52.160;5.298;2023-05-29T04:32:45;20.10;44.00
43995;DHT22;51687;52.160;5.298;2023-05-29T04:35:13;20.00;43.90
43995;DHT22;51687;52.160;5.298;2023-05-29T04:37:40;20.00;44.90
43995;DHT22;51687;52.160;5.298;2023-05-29T04:40:08;20.10;44.20
43995;DHT22;51687;52.160;5.298;2023-05-29T04:42:38;20.00;43.80
43995;DHT22;51687;52.160;5.298;2023-05-29T04:45:08;20.00;44.10
43995;DHT22;51687;52.160;5.298;2023-05-29T04:47:37;20.00;44.50
43995;DHT22;51687;52.160;5.298;2023-05-29T04:50:11;20.00;44.40
43995;DHT22;51687;52.160;5.298;2023-05-29T04:52:38;20.00;44.30
43995;DHT22;51687;52.160;5.298;2023-05-29T04:55:05;20.00;48.50
43995;DHT22;51687;52.160;5.298;2023-05-29T04:57:32;19.90;45.20
43995;DHT22;51687;52.160;5.298;2023-05-29T04:59:59;20.00;45.10
43995;DHT22;51687;52.160;5.298;2023-05-29T05:02:26;19.90;44.70
43995;DHT22;51687;52.160;5.298;2023-05-29T05:04:53;19.90;44.70
43995;DHT22;51687;52.160;5.298;2023-05-29T05:07:19;19.90;45.00
43995;DHT22;51687;52.160;5.298;2023-05-29T05:09:46;19.90;44.70
43995;DHT22;51687;52.160;5.298;2023-05-29T05:12:13;20.00;45.70
43995;DHT22;51687;52.160;5.298;2023-05-29T05:14:41;19.90;45.70
43995;DHT22;51687;52.160;5.298;2023-05-29T05:17:07;19.90;44.90
43995;DHT22;51687;52.160;5.298;2023-05-29T05:19:34;20.00;45.70
43995;DHT22;51687;52.160;5.298;2023-05-29T05:22:01;20.00;45.10
43995;DHT22;51687;52.160;5.298;2023-05-29T05:24:28;20.00;45.90
43995;DHT22;51687;52.160;5.298;2023-05-29T05:26:54;20.00;45.10
43995;DHT22;51687;52.160;5.298;2023-05-29T05:29:21;20.00;45.10
43995;DHT22;51687;52.160;5.298;2023-05-29T05:31:48;20.00;45.50
43995;DHT22;51687;52.160;5.298;2023-05-29T05:34:15;20.00;45.30
43995;DHT22;51687;52.160;5.298;2023-05-29T05:36:42;20.00;45.90
43995;DHT22;51687;52.160;5.298;2023-05-29T05:39:08;20.00;46.70
43995;DHT22;51687;52.160;5.298;2023-05-29T05:41:35;20.10;47.10
43995;DHT22;51687;52.160;5.298;2023-05-29T05:44:02;20.00;46.10
43995;DHT22;51687;52.160;5.298;2023-05-29T05:46:29;20.10;46.50
43995;DHT22;51687;52.160;5.298;2023-05-29T05:48:56;20.00;45.90
43995;DHT22;51687;52.160;5.298;2023-05-29T05:51:27;20.00;46.60
43995;DHT22;51687;52.160;5.298;2023-05-29T05:53:54;20.00;46.60
43995;DHT22;51687;52.160;5.298;2023-05-29T05:56:21;20.00;45.90
43995;DHT22;51687;52.160;5.298;2023-05-29T05:58:48;20.00;46.30
43995;DHT22;51687;52.160;5.298;2023-05-29T06:01:16;20.00;46.50
43995;DHT22;51687;52.160;5.298;2023-05-29T06:03:43;20.00;54.40
43995;DHT22;51687;52.160;5.298;2023-05-29T06:06:10;20.00;48.00
43995;DHT22;51687;52.160;5.298;2023-05-29T06:08:37;20.10;48.20
43995;DHT22;51687;52.160;5.298;2023-05-29T06:11:04;20.10;46.60
43995;DHT22;51687;52.160;5.298;2023-05-29T06:13:32;20.10;47.50
43995;DHT22;51687;52.160;5.298;2023-05-29T06:15:58;20.10;46.60
43995;DHT22;51687;52.160;5.298;2023-05-29T06:18:25;20.20;47.00
43995;DHT22;51687;52.160;5.298;2023-05-29T06:20:52;20.10;46.30
43995;DHT22;51687;52.160;5.298;2023-05-29T06:23:19;20.20;47.90
43995;DHT22;51687;52.160;5.298;2023-05-29T06:25:46;20.20;46.40
43995;DHT22;51687;52.160;5.298;2023-05-29T06:28:13;20.20;46.50
43995;DHT22;51687;52.160;5.298;2023-05-29T06:30:39;20.20;46.40
43995;DHT22;51687;52.160;5.298;2023-05-29T06:33:06;20.30;46.20
43995;DHT22;51687;52.160;5.298;2023-05-29T06:35:33;20.30;45.60
43995;DHT22;51687;52.160;5.298;2023-05-29T06:38:00;20.30;47.50
43995;DHT22;51687;52.160;5.298;2023-05-29T06:40:27;20.30;45.50
43995;DHT22;51687;52.160;5.298;2023-05-29T06:42:54;20.30;46.40
43995;DHT22;51687;52.160;5.298;2023-05-29T06:45:20;20.30;45.90
43995;DHT22;51687;52.160;5.298;2023-05-29T06:47:47;20.40;46.00
43995;DHT22;51687;52.160;5.298;2023-05-29T06:50:14;20.30;45.20
43995;DHT22;51687;52.160;5.298;2023-05-29T06:52:41;20.30;45.80
43995;DHT22;51687;52.160;5.298;2023-05-29T06:55:08;20.30;45.90
43995;DHT22;51687;52.160;5.298;2023-05-29T06:57:34;20.30;46.00
43995;DHT22;51687;52.160;5.298;2023-05-29T07:00:01;20.30;46.00
43995;DHT22;51687;52.160;5.298;2023-05-29T07:02:30;20.30;46.60
43995;DHT22;51687;52.160;5.298;2023-05-29T07:04:57;20.30;45.20
43995;DHT22;51687;52.160;5.298;2023-05-29T07:07:23;20.30;46.70
43995;DHT22;51687;52.160;5.298;2023-05-29T07:09:50;20.30;46.10
43995;DHT22;51687;52.160;5.298;2023-05-29T07:12:22;20.30;46.10
43995;DHT22;51687;52.160;5.298;2023-05-29T07:14:49;20.30;45.40
43995;DHT22;51687;52.160;5.298;2023-05-29T07:17:16;20.30;46.50
43995;DHT22;51687;52.160;5.298;2023-05-29T07:19:43;20.30;45.30
43995;DHT22;51687;52.160;5.298;2023-05-29T07:22:10;20.30;44.90
43995;DHT22;51687;52.160;5.298;2023-05-29T07:24:37;20.30;46.40
43995;DHT22;51687;52.160;5.298;2023-05-29T07:27:04;20.30;48.20
43995;DHT22;51687;52.160;5.298;2023-05-29T07:29:31;20.40;46.20
43995;DHT22;51687;52.160;5.298;2023-05-29T07:31:58;20.40;46.40
43995;DHT22;51687;52.160;5.298;2023-05-29T07:34:25;20.40;47.80
43995;DHT22;51687;52.160;5.298;2023-05-29T07:37:03;20.40;46.30
43995;DHT22;51687;52.160;5.298;2023-05-29T07:39:31;20.40;46.10
43995;DHT22;51687;52.160;5.298;2023-05-29T07:41:59;20.40;51.40
43995;DHT22;51687;52.160;5.298;2023-05-29T07:44:26;20.40;45.50
43995;DHT22;51687;52.160;5.298;2023-05-29T07:46:52;20.30;46.00
43995;DHT22;51687;52.160;5.298;2023-05-29T07:49:20;20.30;46.50
43995;DHT22;51687;52.160;5.298;2023-05-29T07:51:47;20.30;45.50
43995;DHT22;51687;52.160;5.298;2023-05-29T07:54:13;20.30;45.50
43995;DHT22;51687;52.160;5.298;2023-05-29T07:56:45;20.30;44.40
43995;DHT22;51687;52.160;5.298;2023-05-29T07:59:12;20.30;44.20
43995;DHT22;51687;52.160;5.298;2023-05-29T08:01:39;20.30;44.30
43995;DHT22;51687;52.160;5.298;2023-05-29T08:04:06;20.30;44.90
43995;DHT22;51687;52.160;5.298;2023-05-29T08:06:33;20.30;45.00
43995;DHT22;51687;52.160;5.298;2023-05-29T08:09:01;20.20;43.90
43995;DHT22;51687;52.160;5.298;2023-05-29T08:11:28;20.20;44.40
43995;DHT22;51687;52.160;5.298;2023-05-29T08:13:55;20.20;44.20
43995;DHT22;51687;52.160;5.298;2023-05-29T08:16:25;20.20;46.10
43995;DHT22;51687;52.160;5.298;2023-05-29T08:18:54;20.20;44.10
43995;DHT22;51687;52.160;5.298;2023-05-29T08:21:21;20.20;44.90
43995;DHT22;51687;52.160;5.298;2023-05-29T08:23:48;20.30;44.90
43995;DHT22;51687;52.160;5.298;2023-05-29T08:26:15;20.20;44.20
43995;DHT22;51687;52.160;5.298;2023-05-29T08:28:42;20.30;44.60
43995;DHT22;51687;52.160;5.298;2023-05-29T08:31:09;20.30;44.30
43995;DHT22;51687;52.160;5.298;2023-05-29T08:33:35;20.30;44.00
43995;DHT22;51687;52.160;5.298;2023-05-29T08:36:03;20.30;43.90
43995;DHT22;51687;52.160;5.298;2023-05-29T08:38:30;20.20;43.20
43995;DHT22;51687;52.160;5.298;2023-05-29T08:40:57;20.20;42.90
43995;DHT22;51687;52.160;5.298;2023-05-29T08:43:31;20.20;44.40
43995;DHT22;51687;52.160;5.298;2023-05-29T08:46:02;20.20;43.90
43995;DHT22;51687;52.160;5.298;2023-05-29T08:48:30;20.20;43.60
43995;DHT22;51687;52.160;5.298;2023-05-29T08:50:58;20.20;44.20
43995;DHT22;51687;52.160;5.298;2023-05-29T08:53:27;20.20;44.30
43995;DHT22;51687;52.160;5.298;2023-05-29T08:55:54;20.20;43.60
43995;DHT22;51687;52.160;5.298;2023-05-29T08:58:22;20.20;45.00
43995;DHT22;51687;52.160;5.298;2023-05-29T09:00:50;20.30;44.90
43995;DHT22;51687;52.160;5.298;2023-05-29T09:03:18;20.30;44.40
43995;DHT22;51687;52.160;5.298;2023-05-29T09:05:48;20.30;44.00
43995;DHT22;51687;52.160;5.298;2023-05-29T09:08:15;20.30;43.60
43995;DHT22;51687;52.160;5.298;2023-05-29T09:10:43;20.30;44.30
43995;DHT22;51687;52.160;5.298;2023-05-29T09:13:11;20.30;43.30
43995;DHT22;51687;52.160;5.298;2023-05-29T09:15:38;20.30;43.50
43995;DHT22;51687;52.160;5.298;2023-05-29T09:18:07;20.30;45.30
43995;DHT22;51687;52.160;5.298;2023-05-29T09:20:35;20.30;44.20
43995;DHT22;51687;52.160;5.298;2023-05-29T09:23:05;20.30;43.60
43995;DHT22;51687;52.160;5.298;2023-05-29T09:25:33;20.40;43.20
43995;DHT22;51687;52.160;5.298;2023-05-29T09:30:40;20.40;51.20
43995;DHT22;51687;52.160;5.298;2023-05-29T09:33:08;20.40;44.00
43995;DHT22;51687;52.160;5.298;2023-05-29T09:38:11;20.40;45.30
43995;DHT22;51687;52.160;5.298;2023-05-29T09:40:54;20.40;44.60
43995;DHT22;51687;52.160;5.298;2023-05-29T09:43:25;20.40;44.00
43995;DHT22;51687;52.160;5.298;2023-05-29T09:45:51;20.40;43.00
43995;DHT22;51687;52.160;5.298;2023-05-29T09:48:22;20.30;43.40
43995;DHT22;51687;52.160;5.298;2023-05-29T09:50:49;20.30;42.70
43995;DHT22;51687;52.160;5.298;2023-05-29T09:53:25;20.30;43.10
43995;DHT22;51687;52.160;5.298;2023-05-29T09:55:53;20.30;42.80
43995;DHT22;51687;52.160;5.298;2023-05-29T09:58:24;20.30;42.80
43995;DHT22;51687;52.160;5.298;2023-05-29T10:00:52;20.30;42.70
43995;DHT22;51687;52.160;5.298;2023-05-29T10:03:20;20.30;42.00
43995;DHT22;51687;52.160;5.298;2023-05-29T10:05:54;20.30;42.90
43995;DHT22;51687;52.160;5.298;2023-05-29T10:08:24;20.30;42.10
43995;DHT22;51687;52.160;5.298;2023-05-29T10:10:54;20.30;42.40
43995;DHT22;51687;52.160;5.298;2023-05-29T10:13:23;20.40;46.00
43995;DHT22;51687;52.160;5.298;2023-05-29T10:15:51;20.40;42.20
43995;DHT22;51687;52.160;5.298;2023-05-29T10:18:24;20.40;42.40
43995;DHT22;51687;52.160;5.298;2023-05-29T10:20:54;20.30;41.40
43995;DHT22;51687;52.160;5.298;2023-05-29T10:23:25;20.30;41.40
43995;DHT22;51687;52.160;5.298;2023-05-29T10:25:54;20.40;41.80
43995;DHT22;51687;52.160;5.298;2023-05-29T10:28:26;20.40;40.70
43995;DHT22;51687;52.160;5.298;2023-05-29T10:31:01;20.30;40.80
43995;DHT22;51687;52.160;5.298;2023-05-29T10:36:10;20.40;41.70
43995;DHT22;51687;52.160;5.298;2023-05-29T10:38:41;20.40;41.20
43995;DHT22;51687;52.160;5.298;2023-05-29T10:43:59;20.30;42.00
43995;DHT22;51687;52.160;5.298;2023-05-29T10:49:21;20.40;42.20
43995;DHT22;51687;52.160;5.298;2023-05-29T10:51:49;20.40;40.70
43995;DHT22;51687;52.160;5.298;2023-05-29T10:54:16;20.40;40.40
43995;DHT22;51687;52.160;5.298;2023-05-29T10:56:56;20.40;41.70
43995;DHT22;51687;52.160;5.298;2023-05-29T10:59:23;20.40;40.40
43995;DHT22;51687;52.160;5.298;2023-05-29T11:01:55;20.40;41.50
43995;DHT22;51687;52.160;5.298;2023-05-29T11:06:53;20.50;41.10
43995;DHT22;51687;52.160;5.298;2023-05-29T11:09:37;20.50;39.50
43995;DHT22;51687;52.160;5.298;2023-05-29T11:12:15;20.50;40.80
43995;DHT22;51687;52.160;5.298;2023-05-29T11:14:56;20.50;41.10
43995;DHT22;51687;52.160;5.298;2023-05-29T11:17:30;20.50;40.40
43995;DHT22;51687;52.160;5.298;2023-05-29T11:20:01;20.50;40.50
43995;DHT22;51687;52.160;5.298;2023-05-29T11:23:19;20.60;41.30
43995;DHT22;51687;52.160;5.298;2023-05-29T11:25:21;20.60;40.50
43995;DHT22;51687;52.160;5.298;2023-05-29T11:27:49;20.60;40.40
43995;DHT22;51687;52.160;5.298;2023-05-29T11:30:17;20.60;40.40
43995;DHT22;51687;52.160;5.298;2023-05-29T11:32:45;20.60;40.60
43995;DHT22;51687;52.160;5.298;2023-05-29T11:35:13;20.60;40.60
43995;DHT22;51687;52.160;5.298;2023-05-29T11:37:42;20.60;40.50
43995;DHT22;51687;52.160;5.298;2023-05-29T11:40:16;20.60;40.60
43995;DHT22;51687;52.160;5.298;2023-05-29T11:42:45;20.60;40.90
43995;DHT22;51687;52.160;5.298;2023-05-29T11:45:18;20.70;41.10
43995;DHT22;51687;52.160;5.298;2023-05-29T11:50:23;20.70;40.70
43995;DHT22;51687;52.160;5.298;2023-05-29T11:52:50;20.70;41.20
43995;DHT22;51687;52.160;5.298;2023-05-29T11:55:21;20.70;40.20
43995;DHT22;51687;52.160;5.298;2023-05-29T11:57:49;20.70;40.60
43995;DHT22;51687;52.160;5.298;2023-05-29T12:00:17;20.70;41.40
43995;DHT22;51687;52.160;5.298;2023-05-29T12:02:45;20.70;41.00
43995;DHT22;51687;52.160;5.298;2023-05-29T12:05:17;20.70;39.90
43995;DHT22;51687;52.160;5.298;2023-05-29T12:07:55;20.80;41.10
43995;DHT22;51687;52.160;5.298;2023-05-29T12:10:28;20.70;39.90
43995;DHT22;51687;52.160;5.298;2023-05-29T12:12:57;20.80;40.20
43995;DHT22;51687;52.160;5.298;2023-05-29T12:15:25;20.80;40.50
43995;DHT22;51687;52.160;5.298;2023-05-29T12:17:53;20.80;40.20
43995;DHT22;51687;52.160;5.298;2023-05-29T12:20:23;20.80;41.60
43995;DHT22;51687;52.160;5.298;2023-05-29T12:22:53;20.80;40.90
43995;DHT22;51687;52.160;5.298;2023-05-29T12:25:25;20.80;41.30
43995;DHT22;51687;52.160;5.298;2023-05-29T12:27:55;20.90;41.10
43995;DHT22;51687;52.160;5.298;2023-05-29T12:30:23;20.90;40.30
43995;DHT22;51687;52.160;5.298;2023-05-29T12:32:59;20.80;40.50
43995;DHT22;51687;52.160;5.298;2023-05-29T12:35:29;20.90;41.10
43995;DHT22;51687;52.160;5.298;2023-05-29T12:42:59;21.00;39.90
43995;DHT22;51687;52.160;5.298;2023-05-29T12:45:31;20.90;38.70
43995;DHT22;51687;52.160;5.298;2023-05-29T12:47:59;21.00;39.60
43995;DHT22;51687;52.160;5.298;2023-05-29T12:50:31;21.00;40.40
43995;DHT22;51687;52.160;5.298;2023-05-29T12:53:10;21.00;39.90
43995;DHT22;51687;52.160;5.298;2023-05-29T12:55:38;21.00;39.70
43995;DHT22;51687;52.160;5.298;2023-05-29T12:58:10;21.00;39.00
43995;DHT22;51687;52.160;5.298;2023-05-29T13:00:39;21.00;39.00
43995;DHT22;51687;52.160;5.298;2023-05-29T13:03:07;21.00;39.10
43995;DHT22;51687;52.160;5.298;2023-05-29T13:05:34;21.00;39.00
43995;DHT22;51687;52.160;5.298;2023-05-29T13:08:01;21.00;39.20
43995;DHT22;51687;52.160;5.298;2023-05-29T13:10:28;21.00;39.00
43995;DHT22;51687;52.160;5.298;2023-05-29T13:12:55;21.00;39.00
43995;DHT22;51687;52.160;5.298;2023-05-29T13:15:25;21.10;39.30
43995;DHT22;51687;52.160;5.298;2023-05-29T13:17:53;21.10;39.00
43995;DHT22;51687;52.160;5.298;2023-05-29T13:20:21;21.10;38.40
43995;DHT22;51687;52.160;5.298;2023-05-29T13:22:48;21.20;38.20
43995;DHT22;51687;52.160;5.298;2023-05-29T13:25:17;21.20;39.70
43995;DHT22;51687;52.160;5.298;2023-05-29T13:27:47;21.20;40.00
43995;DHT22;51687;52.160;5.298;2023-05-29T13:30:15;21.20;41.20
43995;DHT22;51687;52.160;5.298;2023-05-29T13:32:42;21.30;39.80
43995;DHT22;51687;52.160;5.298;2023-05-29T13:35:10;21.30;38.20
43995;DHT22;51687;52.160;5.298;2023-05-29T13:37:37;21.30;38.30
43995;DHT22;51687;52.160;5.298;2023-05-29T13:40:05;21.30;37.10
43995;DHT22;51687;52.160;5.298;2023-05-29T13:42:33;21.30;38.80
43995;DHT22;51687;52.160;5.298;2023-05-29T13:45:01;21.30;38.70
43995;DHT22;51687;52.160;5.298;2023-05-29T13:47:28;21.30;38.20
43995;DHT22;51687;52.160;5.298;2023-05-29T13:49:58;21.30;38.50
43995;DHT22;51687;52.160;5.298;2023-05-29T13:52:25;21.40;39.40
43995;DHT22;51687;52.160;5.298;2023-05-29T13:54:52;21.40;38.40
43995;DHT22;51687;52.160;5.298;2023-05-29T13:57:19;21.40;37.60
43995;DHT22;51687;52.160;5.298;2023-05-29T13:59:46;21.40;38.20
43995;DHT22;51687;52.160;5.298;2023-05-29T14:02:13;21.40;37.80
43995;DHT22;51687;52.160;5.298;2023-05-29T14:04:40;21.40;39.10
43995;DHT22;51687;52.160;5.298;2023-05-29T14:07:09;21.50;38.30
43995;DHT22;51687;52.160;5.298;2023-05-29T14:09:35;21.50;37.30
43995;DHT22;51687;52.160;5.298;2023-05-29T14:12:02;21.50;37.60
43995;DHT22;51687;52.160;5.298;2023-05-29T14:14:29;21.50;38.70
43995;DHT22;51687;52.160;5.298;2023-05-29T14:16:56;21.50;37.20
43995;DHT22;51687;52.160;5.298;2023-05-29T14:19:23;21.50;36.80
43995;DHT22;51687;52.160;5.298;2023-05-29T14:21:51;21.50;36.50
43995;DHT22;51687;52.160;5.298;2023-05-29T14:24:18;21.50;37.20
43995;DHT22;51687;52.160;5.298;2023-05-29T14:26:45;21.50;47.30
43995;DHT22;51687;52.160;5.298;2023-05-29T14:29:14;21.60;37.90
43995;DHT22;51687;52.160;5.298;2023-05-29T14:31:43;21.50;37.30
43995;DHT22;51687;52.160;5.298;2023-05-29T14:34:11;21.50;36.90
43995;DHT22;51687;52.160;5.298;2023-05-29T14:36:39;21.60;37.40
43995;DHT22;51687;52.160;5.298;2023-05-29T14:39:06;21.60;38.20
43995;DHT22;51687;52.160;5.298;2023-05-29T14:41:33;21.60;38.50
43995;DHT22;51687;52.160;5.298;2023-05-29T14:44:02;21.60;39.60
43995;DHT22;51687;52.160;5.298;2023-05-29T14:46:29;21.50;42.50
43995;DHT22;51687;52.160;5.298;2023-05-29T14:48:59;21.60;39.90
43995;DHT22;51687;52.160;5.298;2023-05-29T14:51:27;21.60;40.00
43995;DHT22;51687;52.160;5.298;2023-05-29T14:53:54;21.50;40.30
43995;DHT22;51687;52.160;5.298;2023-05-29T14:56:21;21.50;40.40
43995;DHT22;51687;52.160;5.298;2023-05-29T14:58:48;21.60;40.80
43995;DHT22;51687;52.160;5.298;2023-05-29T15:01:18;21.50;42.10
43995;DHT22;51687;52.160;5.298;2023-05-29T15:03:45;21.60;38.10
43995;DHT22;51687;52.160;5.298;2023-05-29T15:06:12;21.50;41.70
43995;DHT22;51687;52.160;5.298;2023-05-29T15:08:40;21.50;42.80
43995;DHT22;51687;52.160;5.298;2023-05-29T15:11:09;21.60;42.70
43995;DHT22;51687;52.160;5.298;2023-05-29T15:13:36;21.60;42.70
43995;DHT22;51687;52.160;5.298;2023-05-29T15:16:03;21.50;42.50
43995;DHT22;51687;52.160;5.298;2023-05-29T15:18:33;21.60;42.10
43995;DHT22;51687;52.160;5.298;2023-05-29T15:21:00;21.60;42.40
43995;DHT22;51687;52.160;5.298;2023-05-29T15:23:27;21.60;42.10
43995;DHT22;51687;52.160;5.298;2023-05-29T15:25:54;21.60;41.90
43995;DHT22;51687;52.160;5.298;2023-05-29T15:28:21;21.50;41.40
43995;DHT22;51687;52.160;5.298;2023-05-29T15:30:48;21.60;41.60
43995;DHT22;51687;52.160;5.298;2023-05-29T15:33:16;21.50;40.60
43995;DHT22;51687;52.160;5.298;2023-05-29T15:35:42;21.40;40.60
43995;DHT22;51687;52.160;5.298;2023-05-29T15:38:10;21.40;40.90
43995;DHT22;51687;52.160;5.298;2023-05-29T15:40:39;21.30;41.00
43995;DHT22;51687;52.160;5.298;2023-05-29T15:43:07;21.30;41.10
43995;DHT22;51687;52.160;5.298;2023-05-29T15:45:34;21.30;41.20
43995;DHT22;51687;52.160;5.298;2023-05-29T15:48:00;21.20;41.40
43995;DHT22;51687;52.160;5.298;2023-05-29T15:50:27;21.20;41.50
43995;DHT22;51687;52.160;5.298;2023-05-29T15:52:54;21.20;41.20
43995;DHT22;51687;52.160;5.298;2023-05-29T15:55:23;21.10;40.80
43995;DHT22;51687;52.160;5.298;2023-05-29T15:57:51;21.10;41.00
43995;DHT22;51687;52.160;5.298;2023-05-29T16:00:18;21.10;41.10
43995;DHT22;51687;52.160;5.298;2023-05-29T16:02:46;21.00;41.50
43995;DHT22;51687;52.160;5.298;2023-05-29T16:05:13;21.00;41.70
43995;DHT22;51687;52.160;5.298;2023-05-29T16:07:40;21.00;41.80
43995;DHT22;51687;52.160;5.298;2023-05-29T16:10:08;21.00;41.80
43995;DHT22;51687;52.160;5.298;2023-05-29T16:12:34;21.00;41.90
43995;DHT22;51687;52.160;5.298;2023-05-29T16:15:01;21.00;41.70
43995;DHT22;51687;52.160;5.298;2023-05-29T16:17:28;20.90;41.70
43995;DHT22;51687;52.160;5.298;2023-05-29T16:19:55;20.90;41.90
43995;DHT22;51687;52.160;5.298;2023-05-29T16:22:25;20.80;41.50